Time;durP1;ratioP1;P1;durP2;ratioP2;P2;SDS_P1;SDS_P2;PMS_P1;PMS_P2;Temp;Humidity;BMP_temperature;BMP_pressure;BME280_temperature;BME280_humidity;BME280_pressure;Samples;Min_cycle;Max_cycle;Signal;HPM_P1;HPM_P2
2021/11/06 09:44:15;;;;;;;8.30;5.85;;;17.90;99.90;;;;;;5079589;27;20771;-70
2021/11/06 09:46:40;;;;;;;12.05;5.70;;;18.80;83.30;;;;;;5056007;28;20083;-72
2021/11/06 09:49:06;;;;;;;7.82;5.47;;;19.20;75.60;;;;;;5050825;28;20079;-73
2021/11/06 09:51:32;;;;;;;6.53;4.50;;;19.70;72.00;;;;;;5051940;28;20530;-75
2021/11/06 09:53:58;;;;;;;7.10;5.05;;;20.30;68.30;;;;;;5056306;28;20025;-70
2021/11/06 09:56:25;;;;;;;8.00;5.13;;;20.80;65.10;;;;;;5049482;28;20032;-72
2021/11/06 09:58:56;;;;;;;8.25;5.38;;;21.30;61.20;;;;;;5048197;28;20061;-71
2021/11/06 10:01:23;;;;;;;7.63;5.03;;;21.60;59.90;;;;;;5048535;28;20413;-74
2021/11/06 10:03:49;;;;;;;5.32;4.63;;;22.00;58.80;;;;;;5050478;28;20037;-73
2021/11/06 10:06:17;;;;;;;6.57;4.80;;;22.10;57.00;;;;;;5049771;28;20117;-73
2021/11/06 10:08:44;;;;;;;7.15;4.88;;;22.10;56.10;;;;;;5044626;28;20091;-72
2021/11/06 10:11:13;;;;;;;7.20;4.93;;;22.20;55.40;;;;;;5041991;28;20025;-69
2021/11/06 10:14:06;;;;;;;6.03;5.10;;;22.40;54.70;;;;;;5037668;28;20049;-69
2021/11/06 10:17:05;;;;;;;6.53;5.03;;;22.70;54.20;;;;;;5046338;28;20352;-70
2021/11/06 10:19:40;;;;;;;7.05;5.05;;;23.00;53.30;;;;;;5043235;28;20037;-70
2021/11/06 10:22:17;;;;;;;5.45;4.55;;;23.10;52.20;;;;;;5048465;28;20071;-69
2021/11/06 10:24:50;;;;;;;6.65;5.15;;;23.10;52.10;;;;;;5046858;28;20076;-70
2021/11/06 10:27:18;;;;;;;7.70;4.78;;;23.30;51.30;;;;;;5045227;28;20021;-77
2021/11/06 10:30:01;;;;;;;5.28;4.15;;;23.70;50.80;;;;;;5040267;28;20055;-77
2021/11/06 10:32:27;;;;;;;5.68;4.47;;;23.60;49.90;;;;;;5043452;28;20057;-76
2021/11/06 10:34:53;;;;;;;4.85;3.95;;;23.20;50.00;;;;;;5046410;28;20017;-76
2021/11/06 10:37:20;;;;;;;5.97;4.20;;;22.90;50.60;;;;;;5063536;28;20021;-75
2021/11/06 10:40:15;;;;;;;6.82;4.43;;;22.80;50.60;;;;;;5047395;28;20062;-76
2021/11/06 10:42:53;;;;;;;7.75;4.38;;;23.10;49.60;;;;;;5048420;28;20049;-75
2021/11/06 10:45:22;;;;;;;5.88;4.38;;;23.10;48.80;;;;;;5049372;28;20443;-75
2021/11/06 10:48:01;;;;;;;8.82;4.78;;;23.30;48.40;;;;;;5050116;28;20036;-75
2021/11/06 10:51:03;;;;;;;7.32;4.55;;;23.60;47.90;;;;;;5054572;28;20025;-76
2021/11/06 10:53:52;;;;;;;7.57;6.15;;;23.90;47.80;;;;;;5054739;28;20463;-75
2021/11/06 10:56:18;;;;;;;6.85;4.47;;;23.60;48.00;;;;;;5035937;28;20362;-76
2021/11/06 10:58:46;;;;;;;6.70;4.50;;;22.90;48.10;;;;;;5036020;28;20100;-77
2021/11/06 11:01:18;;;;;;;6.20;4.47;;;22.10;48.60;;;;;;5035801;28;20022;-75
2021/11/06 11:03:46;;;;;;;6.78;4.25;;;22.10;49.20;;;;;;5035015;28;20029;-76
2021/11/06 11:06:13;;;;;;;5.75;4.53;;;22.00;49.20;;;;;;5034324;28;20367;-77
2021/11/06 11:09:09;;;;;;;8.00;4.55;;;21.70;48.90;;;;;;5034470;28;20025;-78
2021/11/06 11:11:35;;;;;;;7.97;4.55;;;21.40;49.90;;;;;;5035001;28;20021;-76
2021/11/06 11:14:13;;;;;;;7.20;4.00;;;21.40;50.10;;;;;;5035917;28;20164;-76
2021/11/06 11:16:52;;;;;;;6.13;4.25;;;21.20;49.60;;;;;;5034027;28;20021;-76
2021/11/06 11:19:40;;;;;;;6.78;4.10;;;21.00;49.30;;;;;;5034477;28;20026;-74
2021/11/06 11:22:19;;;;;;;7.07;4.00;;;20.70;49.50;;;;;;5035660;28;20013;-76
2021/11/06 11:24:47;;;;;;;6.15;4.18;;;20.60;49.40;;;;;;5032153;28;20371;-75
2021/11/06 11:27:13;;;;;;;5.53;4.38;;;20.40;49.70;;;;;;5033826;28;20025;-76
2021/11/06 11:29:39;;;;;;;7.45;4.40;;;20.10;50.10;;;;;;5040052;28;20021;-75
2021/11/06 11:32:06;;;;;;;6.75;4.28;;;19.90;50.00;;;;;;5047885;28;20032;-76
2021/11/06 11:34:32;;;;;;;6.40;5.00;;;19.30;50.50;;;;;;5032966;28;20535;-76
2021/11/06 11:36:59;;;;;;;6.43;5.05;;;19.00;51.40;;;;;;5028503;28;20056;-76
2021/11/06 11:39:26;;;;;;;7.70;4.55;;;19.10;52.60;;;;;;5034055;28;20048;-77
2021/11/06 11:42:28;;;;;;;6.65;4.88;;;19.30;52.00;;;;;;5033311;28;20459;-76
2021/11/06 11:45:25;;;;;;;7.10;4.65;;;19.40;51.70;;;;;;5024879;28;20438;-76
2021/11/06 11:48:02;;;;;;;6.15;4.60;;;19.70;51.40;;;;;;5021309;28;20028;-77
2021/11/06 11:50:32;;;;;;;6.72;4.80;;;19.70;50.90;;;;;;5033782;28;20021;-77
2021/11/06 11:53:00;;;;;;;6.60;4.10;;;19.60;50.70;;;;;;5033559;28;20422;-77
2021/11/06 11:55:47;;;;;;;6.53;4.78;;;19.50;50.80;;;;;;5033866;28;20459;-76
2021/11/06 11:58:15;;;;;;;7.72;5.13;;;19.10;50.60;;;;;;5033565;28;20455;-76
2021/11/06 12:00:47;;;;;;;5.90;4.50;;;18.60;51.10;;;;;;5035037;28;20076;-76
2021/11/06 12:03:24;;;;;;;7.38;4.88;;;18.10;51.90;;;;;;5019709;28;20031;-77
2021/11/06 12:05:50;;;;;;;8.52;5.65;;;17.90;53.10;;;;;;5033448;28;20467;-76
2021/11/06 12:08:16;;;;;;;6.75;5.10;;;18.20;53.00;;;;;;5033438;28;20029;-77
2021/11/06 12:10:46;;;;;;;6.35;4.68;;;18.70;52.30;;;;;;5033039;28;20115;-77
2021/11/06 12:13:30;;;;;;;7.55;4.72;;;19.10;51.70;;;;;;5033296;28;20021;-76
2021/11/06 12:16:04;;;;;;;7.25;4.90;;;19.60;50.90;;;;;;5033771;28;20313;-76
2021/11/06 12:18:32;;;;;;;6.68;5.25;;;19.90;50.20;;;;;;5021592;28;20021;-77
2021/11/06 12:23:37;;;;;;;9.55;7.35;;;20.00;50.30;;;;;;5040341;28;20036;-78
2021/11/06 12:26:32;;;;;;;8.25;5.85;;;19.90;50.10;;;;;;5042591;28;20095;-78
2021/11/06 12:29:07;;;;;;;6.45;4.68;;;19.20;50.50;;;;;;5041667;28;20021;-78
2021/11/06 12:31:38;;;;;;;7.15;4.72;;;18.80;50.80;;;;;;5037786;28;20155;-77
2021/11/06 12:34:09;;;;;;;9.77;4.75;;;18.60;50.90;;;;;;5034258;28;20041;-77
2021/11/06 12:36:44;;;;;;;6.53;5.32;;;18.30;51.40;;;;;;5034698;28;20014;-78
2021/11/06 12:39:12;;;;;;;11.57;4.80;;;18.00;51.90;;;;;;5033760;28;20487;-78
2021/11/06 12:41:39;;;;;;;6.93;4.60;;;17.60;52.40;;;;;;5032798;28;20044;-77
2021/11/06 12:44:08;;;;;;;6.13;3.88;;;17.20;52.90;;;;;;5033323;28;20053;-77
2021/11/06 12:46:37;;;;;;;6.20;4.72;;;16.80;53.60;;;;;;5032789;28;20017;-77
2021/11/06 12:49:10;;;;;;;7.63;4.90;;;16.50;54.60;;;;;;5032219;28;20028;-78
2021/11/06 12:51:42;;;;;;;7.03;5.63;;;16.30;54.80;;;;;;5034023;28;20033;-77
2021/11/06 12:54:11;;;;;;;7.18;5.15;;;16.00;55.60;;;;;;5033587;28;20028;-77
2021/11/06 12:56:41;;;;;;;7.43;5.10;;;15.70;56.50;;;;;;5033767;28;20026;-77
2021/11/06 12:59:11;;;;;;;8.70;5.00;;;15.60;57.30;;;;;;5033285;28;20021;-77
2021/11/06 13:01:39;;;;;;;9.15;6.15;;;15.40;57.70;;;;;;5033650;28;20026;-76
2021/11/06 13:04:12;;;;;;;7.95;5.63;;;15.30;57.80;;;;;;5033895;28;20029;-76
2021/11/06 13:06:39;;;;;;;7.55;5.63;;;15.10;58.10;;;;;;5032290;28;20025;-77
2021/11/06 13:09:17;;;;;;;7.32;5.80;;;15.00;58.90;;;;;;5032185;28;20032;-77
2021/11/06 13:11:57;;;;;;;7.43;5.65;;;14.90;59.20;;;;;;5032660;28;20088;-76
2021/11/06 13:14:34;;;;;;;9.73;7.18;;;14.80;59.40;;;;;;5028267;28;20048;-77
2021/11/06 13:17:05;;;;;;;8.38;5.90;;;14.70;60.40;;;;;;5032082;28;20451;-77
2021/11/06 13:19:54;;;;;;;11.00;6.97;;;14.50;60.40;;;;;;5032370;28;20045;-77
2021/11/06 13:22:25;;;;;;;7.60;5.97;;;14.40;60.80;;;;;;5041177;28;20037;-77
2021/11/06 13:25:03;;;;;;;8.75;5.95;;;14.20;60.90;;;;;;5039912;28;20022;-77
2021/11/06 13:27:47;;;;;;;9.45;6.53;;;14.10;61.40;;;;;;5021771;28;20029;-78
2021/11/06 13:30:25;;;;;;;9.55;6.10;;;14.00;61.70;;;;;;5033221;28;20033;-79
2021/11/06 13:33:03;;;;;;;8.43;6.00;;;13.80;62.00;;;;;;5032036;28;20044;-77
2021/11/06 13:35:46;;;;;;;8.18;6.03;;;13.70;62.80;;;;;;5031845;28;20451;-78
2021/11/06 13:38:27;;;;;;;10.02;6.75;;;13.60;63.80;;;;;;5033230;28;20166;-77
2021/11/06 13:41:18;;;;;;;8.70;6.18;;;13.60;63.80;;;;;;5031613;28;20022;-78
2021/11/06 13:43:50;;;;;;;8.02;6.28;;;13.50;64.40;;;;;;5031458;28;20049;-77
2021/11/06 13:46:34;;;;;;;9.32;6.80;;;13.40;64.30;;;;;;5033423;28;20068;-78
2021/11/06 13:49:11;;;;;;;10.05;6.72;;;13.30;64.50;;;;;;5032588;28;20017;-77
2021/11/06 13:51:39;;;;;;;8.95;6.60;;;13.20;64.90;;;;;;5033147;28;20021;-78
2021/11/06 13:54:21;;;;;;;9.55;6.88;;;13.10;64.90;;;;;;5035049;28;20025;-79
2021/11/06 13:57:07;;;;;;;9.70;7.05;;;13.10;65.40;;;;;;5035667;28;20128;-77
2021/11/06 13:59:36;;;;;;;10.23;7.40;;;13.00;65.80;;;;;;5031959;28;20109;-77
2021/11/06 14:02:05;;;;;;;10.75;8.00;;;13.00;66.30;;;;;;5033140;28;20022;-79
2021/11/06 14:04:46;;;;;;;12.25;8.23;;;12.80;66.40;;;;;;5032249;28;20019;-78
2021/11/06 14:07:15;;;;;;;10.20;7.10;;;12.70;66.50;;;;;;5031671;28;20057;-78
2021/11/06 14:10:10;;;;;;;10.00;7.47;;;12.60;66.80;;;;;;5031498;28;20410;-79
2021/11/06 14:12:39;;;;;;;11.67;7.80;;;12.50;67.00;;;;;;5032587;28;20394;-78
2021/11/06 14:15:07;;;;;;;13.10;8.18;;;12.40;67.10;;;;;;5035070;28;20018;-79
2021/11/06 14:17:52;;;;;;;12.43;9.00;;;12.40;68.10;;;;;;5041719;28;20050;-79
2021/11/06 14:20:28;;;;;;;13.23;9.02;;;12.40;68.10;;;;;;5038387;28;20018;-78
2021/11/06 14:22:54;;;;;;;14.93;9.93;;;12.30;68.60;;;;;;5033280;28;20116;-78
2021/11/06 14:25:35;;;;;;;13.77;9.90;;;12.20;69.10;;;;;;5032090;28;20033;-78
2021/11/06 14:28:02;;;;;;;16.48;10.65;;;12.20;69.10;;;;;;5022425;28;20096;-78
2021/11/06 14:30:28;;;;;;;21.63;14.98;;;12.10;69.50;;;;;;5018499;28;20018;-79
2021/11/06 14:33:00;;;;;;;22.13;15.32;;;12.10;69.60;;;;;;5036776;28;20024;-79
2021/11/06 14:35:34;;;;;;;19.15;14.05;;;12.10;69.50;;;;;;5035334;28;20030;-77
2021/11/06 14:38:01;;;;;;;21.45;15.40;;;12.00;69.80;;;;;;5036569;28;20024;-78
2021/11/06 14:40:28;;;;;;;20.20;14.02;;;12.00;69.70;;;;;;5034827;28;20029;-78
2021/11/06 14:42:55;;;;;;;16.67;12.68;;;11.90;69.70;;;;;;5035676;28;20419;-78
2021/11/06 14:45:23;;;;;;;16.13;12.90;;;11.70;70.00;;;;;;5035165;28;20104;-79
2021/11/06 14:48:06;;;;;;;19.15;13.07;;;11.60;70.20;;;;;;5035903;28;20501;-78
2021/11/06 14:50:33;;;;;;;17.33;11.93;;;11.50;70.30;;;;;;5035971;28;20028;-77
2021/11/06 14:53:19;;;;;;;17.92;11.88;;;11.40;70.40;;;;;;5035927;28;20033;-77
2021/11/06 14:55:58;;;;;;;18.73;12.75;;;11.30;70.80;;;;;;5034704;28;20040;-78
2021/11/06 14:58:50;;;;;;;21.75;14.93;;;11.30;71.10;;;;;;5035005;28;20029;-77
2021/11/06 15:01:17;;;;;;;18.15;12.93;;;11.20;72.00;;;;;;5035924;28;20044;-77
2021/11/06 15:04:02;;;;;;;19.50;13.82;;;11.20;71.70;;;;;;5034328;28;20032;-77
2021/11/06 15:06:29;;;;;;;19.63;14.45;;;11.10;72.60;;;;;;5035603;28;20017;-78
2021/11/06 15:08:56;;;;;;;20.70;14.88;;;11.10;72.20;;;;;;5035734;28;20052;-77
2021/11/06 15:11:23;;;;;;;18.10;13.57;;;11.10;72.00;;;;;;5043414;28;20025;-78
2021/11/06 15:13:50;;;;;;;25.52;15.73;;;11.10;72.30;;;;;;5045147;28;20092;-78
2021/11/06 15:16:34;;;;;;;22.40;14.50;;;11.00;72.80;;;;;;5036612;28;20025;-77
2021/11/06 15:19:01;;;;;;;20.05;12.80;;;10.90;72.70;;;;;;5035108;28;20018;-78
2021/11/06 15:21:30;;;;;;;18.35;12.55;;;10.90;72.80;;;;;;5034497;28;20029;-78
2021/11/06 15:23:56;;;;;;;19.95;12.80;;;10.80;73.40;;;;;;5036953;28;20021;-77
2021/11/06 15:26:22;;;;;;;20.58;11.65;;;10.70;73.50;;;;;;5041229;28;20403;-77
2021/11/06 15:28:47;;;;;;;18.08;11.85;;;10.80;73.40;;;;;;5033846;28;20410;-78
2021/11/06 15:31:13;;;;;;;16.52;11.75;;;10.70;73.50;;;;;;5034883;28;20056;-79
2021/11/06 15:33:39;;;;;;;21.52;13.18;;;10.70;74.00;;;;;;5035274;28;20053;-77
2021/11/06 15:36:05;;;;;;;24.75;16.15;;;10.70;73.80;;;;;;5034383;28;20021;-78
2021/11/06 15:38:30;;;;;;;28.95;18.58;;;10.60;73.60;;;;;;5035577;28;20409;-77
2021/11/06 15:40:56;;;;;;;23.67;16.40;;;10.60;74.10;;;;;;5035240;28;20025;-77
2021/11/06 15:43:22;;;;;;;26.08;16.52;;;10.50;74.00;;;;;;5035092;28;20381;-79
2021/11/06 15:45:48;;;;;;;25.00;16.77;;;10.50;74.70;;;;;;5034939;28;20368;-78
2021/11/06 15:48:15;;;;;;;21.77;15.60;;;10.40;74.60;;;;;;5035222;28;20024;-78
2021/11/06 15:50:41;;;;;;;22.23;15.32;;;10.40;74.70;;;;;;5034884;28;20053;-79
2021/11/06 15:53:09;;;;;;;25.83;16.77;;;10.30;75.00;;;;;;5033718;28;20111;-78
2021/11/06 15:55:35;;;;;;;24.60;16.48;;;10.30;75.60;;;;;;5034937;28;20028;-78
2021/11/06 15:58:01;;;;;;;25.23;17.20;;;10.30;76.90;;;;;;5034698;28;20097;-79
2021/11/06 16:00:27;;;;;;;27.50;18.50;;;10.30;76.70;;;;;;5034109;28;20040;-78
2021/11/06 16:02:53;;;;;;;32.08;20.05;;;10.20;76.50;;;;;;5033428;28;20021;-78
2021/11/06 16:05:19;;;;;;;28.67;19.50;;;10.20;76.50;;;;;;5038879;28;20025;-78
2021/11/06 16:07:45;;;;;;;33.10;19.92;;;10.20;76.40;;;;;;5044210;28;20162;-78
2021/11/06 16:10:11;;;;;;;30.95;20.38;;;10.10;76.20;;;;;;5040045;28;20029;-77
2021/11/06 16:12:36;;;;;;;34.80;21.17;;;10.00;76.20;;;;;;5035863;28;20220;-77
2021/11/06 16:15:05;;;;;;;33.47;20.98;;;9.90;76.30;;;;;;5020810;28;20052;-77
2021/11/06 16:17:32;;;;;;;34.92;21.65;;;9.80;76.40;;;;;;5033489;28;20029;-77
2021/11/06 16:20:00;;;;;;;28.15;21.08;;;9.70;76.60;;;;;;5034402;28;20017;-78
2021/11/06 16:22:27;;;;;;;30.40;21.33;;;9.60;76.90;;;;;;5034792;28;20367;-78
2021/11/06 16:24:53;;;;;;;33.13;22.42;;;9.60;77.20;;;;;;5032557;28;20478;-78
2021/11/06 16:27:19;;;;;;;33.40;22.65;;;9.50;78.10;;;;;;5032803;28;20017;-79
2021/11/06 16:29:44;;;;;;;38.53;24.83;;;9.40;77.60;;;;;;5034686;28;20044;-78
2021/11/06 16:32:10;;;;;;;31.40;22.95;;;9.40;77.90;;;;;;5034094;28;20458;-78
2021/11/06 16:34:36;;;;;;;39.97;24.65;;;9.30;78.10;;;;;;5033221;28;20486;-78
2021/11/06 16:37:03;;;;;;;35.88;24.23;;;9.30;78.50;;;;;;5033797;28;20037;-79
2021/11/06 16:39:29;;;;;;;38.75;28.50;;;9.20;78.80;;;;;;5034008;28;20022;-78
2021/11/06 16:41:55;;;;;;;31.65;22.55;;;9.20;79.10;;;;;;5032773;28;20060;-78
2021/11/06 16:44:21;;;;;;;27.42;20.63;;;9.10;79.30;;;;;;5032763;28;20061;-79
2021/11/06 16:46:47;;;;;;;33.75;22.58;;;9.10;79.40;;;;;;5033939;28;20036;-78
2021/11/06 16:49:13;;;;;;;32.13;22.33;;;9.10;79.40;;;;;;5033980;28;20022;-79
2021/11/06 16:51:39;;;;;;;28.20;20.73;;;9.10;79.40;;;;;;5032461;28;20112;-79
2021/11/06 16:54:05;;;;;;;28.08;19.60;;;9.00;80.00;;;;;;5037503;28;20061;-76
2021/11/06 16:56:31;;;;;;;25.23;18.33;;;9.00;80.40;;;;;;5038200;28;20470;-78
2021/11/06 16:58:57;;;;;;;24.05;17.10;;;9.00;80.60;;;;;;5032883;28;20486;-80
2021/11/06 17:01:22;;;;;;;23.20;15.38;;;9.10;80.60;;;;;;5038341;28;20026;-78
2021/11/06 17:03:50;;;;;;;25.05;16.48;;;9.10;81.00;;;;;;5045095;28;20036;-79
2021/11/06 17:06:16;;;;;;;19.92;14.68;;;9.10;81.40;;;;;;5041883;28;20029;-79
2021/11/06 17:08:48;;;;;;;21.55;15.55;;;9.20;81.30;;;;;;5034496;28;20092;-79
2021/11/06 17:11:17;;;;;;;21.63;14.45;;;9.20;80.70;;;;;;5030136;28;20021;-79
2021/11/06 17:13:48;;;;;;;20.35;14.88;;;9.10;81.00;;;;;;5021574;28;20037;-80
2021/11/06 17:16:15;;;;;;;22.40;14.73;;;9.20;80.80;;;;;;5033472;28;20100;-78
2021/11/06 17:18:40;;;;;;;24.55;14.13;;;9.10;81.50;;;;;;5032337;28;20024;-78
2021/11/06 17:21:07;;;;;;;22.90;15.80;;;9.10;80.90;;;;;;5033494;28;20025;-79
2021/11/06 17:23:33;;;;;;;22.20;15.55;;;9.20;81.60;;;;;;5033593;28;20057;-79
2021/11/06 17:25:59;;;;;;;22.58;15.10;;;9.20;83.10;;;;;;5033881;28;20018;-79
2021/11/06 17:28:25;;;;;;;20.00;14.63;;;9.20;83.40;;;;;;5032344;28;20032;-78
2021/11/06 17:30:51;;;;;;;21.05;15.18;;;9.20;83.10;;;;;;5031917;28;20028;-79
2021/11/06 17:33:17;;;;;;;23.23;16.13;;;9.20;82.30;;;;;;5033581;28;20031;-79
2021/11/06 17:35:43;;;;;;;20.33;15.00;;;9.20;82.30;;;;;;5031643;28;20050;-79
2021/11/06 17:38:08;;;;;;;22.95;16.42;;;9.20;81.50;;;;;;5032180;28;20108;-78
2021/11/06 17:40:35;;;;;;;26.30;17.67;;;9.10;81.10;;;;;;5031854;28;20026;-80
2021/11/06 17:43:00;;;;;;;29.42;20.30;;;9.00;81.00;;;;;;5032615;28;20050;-79
2021/11/06 17:45:26;;;;;;;34.58;23.55;;;9.00;80.30;;;;;;5033240;28;20013;-80
2021/11/06 17:47:55;;;;;;;34.38;25.60;;;8.80;80.90;;;;;;5031623;28;20017;-78
2021/11/06 17:50:42;;;;;;;39.72;27.05;;;8.60;80.50;;;;;;5033299;28;20021;-79
2021/11/06 17:53:15;;;;;;;31.02;22.27;;;8.50;81.10;;;;;;5020129;28;20041;-78
2021/11/06 17:55:43;;;;;;;27.50;20.85;;;8.30;81.70;;;;;;5033161;28;20557;-77
2021/11/06 17:58:10;;;;;;;25.67;20.15;;;8.20;82.80;;;;;;5040584;28;20081;-78
2021/11/06 18:00:37;;;;;;;25.55;18.95;;;8.10;83.00;;;;;;5038066;28;20025;-79
2021/11/06 18:03:05;;;;;;;24.10;17.35;;;8.00;83.20;;;;;;5033499;28;20459;-80
2021/11/06 18:05:31;;;;;;;29.48;20.13;;;8.00;83.40;;;;;;5036319;28;20057;-78
2021/11/06 18:07:58;;;;;;;39.80;27.13;;;8.00;83.50;;;;;;5033319;28;20026;-77
2021/11/06 18:10:24;;;;;;;39.22;24.98;;;8.00;83.50;;;;;;5026932;28;20371;-80
2021/11/06 18:12:49;;;;;;;45.75;28.98;;;7.90;83.90;;;;;;5035158;28;20025;-80
2021/11/06 18:15:15;;;;;;;42.85;27.65;;;7.80;84.70;;;;;;5035590;28;20021;-78
2021/11/06 18:17:41;;;;;;;40.42;25.27;;;7.80;84.80;;;;;;5035764;28;20025;-79
2021/11/06 18:20:08;;;;;;;44.47;28.05;;;7.80;86.10;;;;;;5035445;28;20029;-78
2021/11/06 18:22:34;;;;;;;41.67;26.67;;;7.80;85.40;;;;;;5037508;28;20101;-78
2021/11/06 18:25:00;;;;;;;39.17;24.92;;;7.80;84.90;;;;;;5044757;28;20072;-78
2021/11/06 18:27:26;;;;;;;35.33;23.25;;;7.80;84.80;;;;;;5037046;28;20021;-79
2021/11/06 18:29:51;;;;;;;27.40;19.35;;;7.80;85.00;;;;;;5036503;28;20049;-78
2021/11/06 18:32:17;;;;;;;30.23;20.73;;;7.70;84.80;;;;;;5036253;28;20105;-79
2021/11/06 18:34:43;;;;;;;31.67;22.15;;;7.80;84.90;;;;;;5035246;28;20029;-78
2021/11/06 18:37:08;;;;;;;35.63;21.90;;;7.80;86.00;;;;;;5036266;28;20375;-78
2021/11/06 18:39:34;;;;;;;27.67;17.90;;;7.70;87.00;;;;;;5036247;28;20366;-79
2021/11/06 18:42:00;;;;;;;23.70;16.65;;;7.70;86.70;;;;;;5036339;28;20056;-78
2021/11/06 18:44:26;;;;;;;26.10;17.60;;;7.80;86.70;;;;;;5022270;28;20120;-78
2021/11/06 18:47:01;;;;;;;25.65;18.10;;;7.80;87.60;;;;;;5024461;28;20026;-78
2021/11/06 18:49:27;;;;;;;22.42;16.42;;;7.80;86.70;;;;;;5030767;28;20022;-78
2021/11/06 18:51:53;;;;;;;25.30;18.13;;;7.80;88.10;;;;;;5032839;28;20021;-77
2021/11/06 18:54:19;;;;;;;22.58;15.93;;;7.90;89.30;;;;;;5042904;28;20017;-78
2021/11/06 18:56:45;;;;;;;18.73;14.57;;;7.90;88.70;;;;;;5038275;28;20444;-78
2021/11/06 18:59:12;;;;;;;18.00;13.35;;;8.00;89.30;;;;;;5022414;28;20375;-76
2021/11/06 19:01:37;;;;;;;18.83;14.73;;;8.00;88.30;;;;;;5036408;28;20029;-77
2021/11/06 19:04:04;;;;;;;18.98;14.40;;;8.00;87.50;;;;;;5036107;28;20474;-78
2021/11/06 19:06:30;;;;;;;21.65;15.65;;;8.00;88.20;;;;;;5035358;28;20024;-77
2021/11/06 19:08:56;;;;;;;24.30;16.55;;;8.00;87.90;;;;;;5036100;28;20025;-78
2021/11/06 19:11:22;;;;;;;22.95;16.30;;;8.00;90.10;;;;;;5036030;28;20017;-79
2021/11/06 19:13:49;;;;;;;20.98;17.00;;;7.90;89.00;;;;;;5036351;28;20099;-78
2021/11/06 19:16:15;;;;;;;23.45;19.35;;;7.80;88.20;;;;;;5034243;28;20418;-78
2021/11/06 19:18:41;;;;;;;26.05;21.70;;;7.80;87.80;;;;;;5034785;28;20028;-78
2021/11/06 19:21:08;;;;;;;23.88;20.23;;;7.70;88.00;;;;;;5036044;28;20371;-77
2021/11/06 19:23:34;;;;;;;23.67;20.42;;;7.70;90.00;;;;;;5034619;28;20447;-77
2021/11/06 19:26:01;;;;;;;28.27;22.55;;;7.70;89.70;;;;;;5034120;28;20068;-77
2021/11/06 19:28:28;;;;;;;28.48;24.13;;;7.70;88.10;;;;;;5035358;28;20033;-77
2021/11/06 19:30:54;;;;;;;29.42;24.73;;;7.60;87.70;;;;;;5035401;28;20462;-77
2021/11/06 19:33:19;;;;;;;30.40;24.95;;;7.50;88.10;;;;;;5035478;28;20049;-77
2021/11/06 19:35:45;;;;;;;32.60;24.90;;;7.50;88.60;;;;;;5035242;28;20021;-78
2021/11/06 19:38:11;;;;;;;25.02;21.42;;;7.40;88.10;;;;;;5035672;28;20413;-77
2021/11/06 19:40:38;;;;;;;26.50;21.20;;;7.30;89.10;;;;;;5035180;28;20037;-77
2021/11/06 19:43:05;;;;;;;37.08;29.73;;;7.40;90.20;;;;;;5034806;28;20104;-79
2021/11/06 19:45:33;;;;;;;36.75;32.25;;;7.40;90.00;;;;;;5034269;28;20028;-78
2021/11/06 19:48:00;;;;;;;32.53;26.15;;;7.40;90.10;;;;;;5042553;28;20451;-78
2021/11/06 19:50:30;;;;;;;31.60;24.75;;;7.50;89.20;;;;;;5041359;28;20105;-78
2021/11/06 19:52:57;;;;;;;29.23;21.30;;;7.50;88.70;;;;;;5038435;28;20017;-79
2021/11/06 19:55:23;;;;;;;29.73;21.67;;;7.50;88.00;;;;;;5037243;28;20092;-78
2021/11/06 19:57:49;;;;;;;30.02;22.38;;;7.50;88.50;;;;;;5035379;28;20018;-77
2021/11/06 20:00:20;;;;;;;30.40;23.35;;;7.50;89.30;;;;;;5035505;28;20014;-78
2021/11/06 20:02:46;;;;;;;36.13;26.30;;;7.50;90.10;;;;;;5034788;28;20041;-78
2021/11/06 20:05:13;;;;;;;36.33;28.05;;;7.50;90.70;;;;;;5034787;28;20033;-77
2021/11/06 20:07:39;;;;;;;41.03;32.45;;;7.50;89.90;;;;;;5033519;28;20021;-77
2021/11/06 20:10:05;;;;;;;37.30;29.75;;;7.60;89.60;;;;;;5034635;28;20112;-77
2021/11/06 20:12:32;;;;;;;34.42;27.83;;;7.60;89.90;;;;;;5034721;28;20083;-77
2021/11/06 20:14:57;;;;;;;34.05;26.08;;;7.50;89.40;;;;;;5034259;28;20025;-77
2021/11/06 20:17:24;;;;;;;31.13;23.38;;;7.50;89.00;;;;;;5033699;28;20505;-77
2021/11/06 20:19:51;;;;;;;34.67;25.75;;;7.40;88.70;;;;;;5033223;28;20104;-76
2021/11/06 20:22:18;;;;;;;37.17;29.67;;;7.40;88.40;;;;;;5034323;28;20072;-77
2021/11/06 20:24:44;;;;;;;34.72;25.35;;;7.30;88.20;;;;;;5034119;28;20371;-76
2021/11/06 20:27:11;;;;;;;34.72;26.27;;;7.30;87.90;;;;;;5033677;28;20022;-77
2021/11/06 20:29:37;;;;;;;33.30;25.73;;;7.30;88.10;;;;;;5034396;28;20021;-77
2021/11/06 20:32:03;;;;;;;27.17;24.17;;;7.20;88.20;;;;;;5033127;28;20033;-77
2021/11/06 20:34:29;;;;;;;31.58;23.30;;;7.20;88.00;;;;;;5034307;28;20025;-77
2021/11/06 20:36:54;;;;;;;25.20;21.02;;;7.10;88.10;;;;;;5032780;28;20025;-76
2021/11/06 20:39:20;;;;;;;24.75;19.60;;;7.10;88.50;;;;;;5033477;28;20083;-77
2021/11/06 20:41:47;;;;;;;23.55;19.73;;;7.00;89.00;;;;;;5038781;28;20045;-77
2021/11/06 20:44:14;;;;;;;24.08;18.38;;;7.00;89.40;;;;;;5041421;28;20045;-76
2021/11/06 20:46:46;;;;;;;22.95;17.38;;;7.00;89.00;;;;;;5036501;28;20439;-77
2021/11/06 20:49:12;;;;;;;23.42;17.85;;;7.10;88.30;;;;;;5034205;28;20017;-78
2021/11/06 20:51:38;;;;;;;21.35;17.48;;;7.00;88.10;;;;;;5032746;28;20025;-77
2021/11/06 20:54:06;;;;;;;22.73;17.38;;;7.00;87.80;;;;;;5032598;28;20475;-77
2021/11/06 20:56:32;;;;;;;20.38;16.65;;;7.00;87.80;;;;;;5033872;28;20018;-77
2021/11/06 20:58:58;;;;;;;21.17;15.95;;;7.00;88.00;;;;;;5032144;28;20021;-76
2021/11/06 21:01:24;;;;;;;27.35;19.88;;;6.90;87.60;;;;;;5032445;28;20026;-77
2021/11/06 21:03:51;;;;;;;29.27;20.42;;;6.90;87.50;;;;;;5034019;28;20037;-76
2021/11/06 21:06:16;;;;;;;24.98;18.85;;;6.90;87.20;;;;;;5033354;28;20015;-76
2021/11/06 21:08:47;;;;;;;27.23;18.55;;;6.80;86.90;;;;;;5032497;28;20448;-77
2021/11/06 21:11:30;;;;;;;25.15;18.52;;;6.70;87.20;;;;;;5032474;28;20124;-77
2021/11/06 21:19:15;;;;;;;28.02;20.40;;;6.50;88.20;;;;;;5033865;28;20031;-76
2021/11/06 21:21:44;;;;;;;27.25;19.45;;;6.50;88.50;;;;;;5038182;28;20056;-77
2021/11/06 21:24:20;;;;;;;26.38;19.55;;;6.50;88.80;;;;;;5035063;28;20120;-77
2021/11/06 21:26:46;;;;;;;28.38;19.80;;;6.40;89.00;;;;;;5033005;28;20033;-77
2021/11/06 21:29:12;;;;;;;31.08;20.92;;;6.40;89.00;;;;;;5033540;28;20030;-76
2021/11/06 21:31:38;;;;;;;29.25;21.05;;;6.30;89.20;;;;;;5032458;28;20025;-76
2021/11/06 21:34:04;;;;;;;30.58;21.45;;;6.30;89.40;;;;;;5018342;28;20028;-77
2021/11/06 21:36:45;;;;;;;30.67;21.92;;;6.30;89.50;;;;;;5034705;28;20033;-76
2021/11/06 21:39:20;;;;;;;30.83;22.08;;;6.30;89.60;;;;;;5041935;28;20018;-77
2021/11/06 21:41:46;;;;;;;30.10;20.92;;;6.20;89.50;;;;;;5036544;28;20021;-76
2021/11/06 21:44:12;;;;;;;29.80;20.60;;;6.10;89.60;;;;;;5027923;28;20073;-77
2021/11/06 21:46:38;;;;;;;28.17;21.45;;;6.10;90.00;;;;;;5023766;28;20439;-77
2021/11/06 21:49:05;;;;;;;32.42;25.33;;;6.00;90.20;;;;;;5033088;28;20542;-77
2021/11/06 21:51:31;;;;;;;34.33;24.08;;;6.00;90.30;;;;;;5031996;28;20486;-76
2021/11/06 21:53:59;;;;;;;47.75;41.47;;;5.90;90.50;;;;;;5031625;28;20052;-76
2021/11/06 21:56:25;;;;;;;41.35;33.33;;;5.90;90.60;;;;;;5033736;28;20371;-78
2021/11/06 21:58:51;;;;;;;44.10;39.33;;;5.90;90.70;;;;;;5033103;28;20029;-77
2021/11/06 22:01:17;;;;;;;44.78;38.50;;;5.80;90.80;;;;;;5031701;28;20105;-76
2021/11/06 22:03:45;;;;;;;45.90;37.75;;;5.80;91.00;;;;;;5031774;28;20486;-76
2021/11/06 22:06:12;;;;;;;47.15;39.60;;;5.80;91.10;;;;;;5032892;28;20021;-76
2021/11/06 22:08:38;;;;;;;45.65;39.67;;;5.90;91.00;;;;;;5031870;28;20108;-76
2021/11/06 22:11:04;;;;;;;35.65;31.17;;;5.80;90.80;;;;;;5032600;28;20060;-76
2021/11/06 22:13:30;;;;;;;51.25;39.50;;;5.80;90.90;;;;;;5033247;28;20025;-76
2021/11/06 22:15:59;;;;;;;43.00;37.95;;;5.80;91.00;;;;;;5033309;28;20018;-76
2021/11/06 22:18:27;;;;;;;40.53;35.53;;;5.80;90.90;;;;;;5032856;28;20014;-76
2021/11/06 22:20:53;;;;;;;39.47;34.00;;;5.80;90.90;;;;;;5031424;28;20414;-76
2021/11/06 22:23:18;;;;;;;40.67;32.63;;;5.70;91.00;;;;;;5031311;28;20021;-76
2021/11/06 22:25:45;;;;;;;38.88;32.78;;;5.70;91.10;;;;;;5032922;28;20083;-76
2021/11/06 22:28:11;;;;;;;47.97;33.47;;;5.60;91.20;;;;;;5032115;28;20056;-77
2021/11/06 22:30:38;;;;;;;36.75;30.13;;;5.50;91.20;;;;;;5019379;28;20021;-76
2021/11/06 22:33:05;;;;;;;37.47;30.98;;;5.50;91.40;;;;;;5039012;28;20124;-77
2021/11/06 22:35:31;;;;;;;36.05;28.13;;;5.50;91.40;;;;;;5037566;28;20021;-76
2021/11/06 22:37:57;;;;;;;32.40;25.98;;;5.50;91.50;;;;;;5037319;28;20112;-76
2021/11/06 22:40:23;;;;;;;33.28;26.83;;;5.50;91.40;;;;;;5033154;28;20017;-77
2021/11/06 22:42:52;;;;;;;30.20;24.67;;;5.50;91.50;;;;;;5032576;28;20060;-76